createdAt,value
2018-01-25T00:00:42.476Z,12.2
2018-01-25T00:01:43.878Z,12.3
2018-01-25T00:02:45.358Z,12.4
2018-01-25T00:03:46.765Z,12.2
2018-01-25T00:04:48.239Z,12.3
2018-01-25T00:05:49.643Z,12.3
2018-01-25T00:06:51.118Z,12.3
2018-01-25T00:07:52.524Z,12.3
2018-01-25T00:08:53.998Z,12.3
2018-01-25T00:09:55.395Z,12.3
2018-01-25T00:10:56.883Z,12.3
2018-01-25T00:11:58.284Z,12.2
2018-01-25T00:12:59.763Z,12.3
2018-01-25T00:14:01.165Z,12.3
2018-01-25T00:15:02.672Z,12.3
2018-01-25T00:16:04.045Z,12.3
2018-01-25T00:17:05.522Z,12.3
2018-01-25T00:18:06.929Z,12.3
2018-01-25T00:19:08.330Z,12.3
2018-01-25T00:20:09.843Z,12.2
2018-01-25T00:21:11.246Z,12.3
2018-01-25T00:22:12.653Z,12.3
2018-01-25T00:23:14.164Z,12.2
2018-01-25T00:24:15.566Z,12.3
2018-01-25T00:25:17.051Z,12.3
2018-01-25T00:26:18.453Z,12.3
2018-01-25T00:27:19.927Z,12.2
2018-01-25T00:28:21.332Z,12.3
2018-01-25T00:29:22.734Z,12.3
2018-01-25T00:30:24.252Z,12.3
2018-01-25T00:31:25.654Z,12.3
2018-01-25T00:32:27.059Z,12.3
2018-01-25T00:33:28.569Z,12.3
2018-01-25T00:34:29.974Z,12.3
2018-01-25T00:35:31.376Z,12.3
2018-01-25T00:36:32.888Z,12.3
2018-01-25T00:37:34.294Z,12.3
2018-01-25T00:38:35.696Z,12.3
2018-01-25T00:39:37.214Z,12.3
2018-01-25T00:40:38.619Z,12.2
2018-01-25T00:41:40.021Z,12.2
2018-01-25T00:42:41.529Z,12.3
2018-01-25T00:43:42.935Z,12.2
2018-01-25T00:44:44.340Z,12.2
2018-01-25T00:45:45.855Z,12.2
2018-01-25T00:46:47.258Z,12.1
2018-01-25T00:47:48.660Z,12.1
2018-01-25T00:48:50.176Z,12.1
2018-01-25T00:49:51.577Z,12.1
2018-01-25T00:50:52.979Z,12.1
2018-01-25T00:51:54.497Z,12.0
2018-01-25T00:52:55.906Z,11.9
2018-01-25T00:53:57.306Z,11.7
2018-01-25T00:54:58.821Z,11.6
2018-01-25T00:56:00.220Z,11.5
2018-01-25T00:57:01.624Z,11.4
2018-01-25T00:58:03.141Z,11.4
2018-01-25T00:59:04.541Z,11.3
2018-01-25T01:00:06.028Z,11.3
2018-01-25T01:01:07.430Z,11.3
2018-01-25T01:02:08.901Z,11.2
2018-01-25T01:03:10.302Z,11.1
2018-01-25T01:04:11.699Z,11.0
2018-01-25T01:05:13.227Z,11.0
2018-01-25T01:06:14.627Z,11.1
2018-01-25T01:07:16.032Z,11.0
2018-01-25T01:08:17.543Z,11.0
2018-01-25T01:09:18.941Z,11.0
2018-01-25T01:10:20.428Z,10.9
2018-01-25T01:11:21.824Z,10.9
2018-01-25T01:12:23.304Z,10.8
2018-01-25T01:13:24.706Z,10.8
2018-01-25T01:14:26.183Z,10.8
2018-01-25T01:15:27.587Z,10.7
2018-01-25T01:16:29.066Z,10.8
2018-01-25T01:17:30.472Z,10.6
2018-01-25T01:18:31.873Z,10.6
2018-01-25T01:19:33.385Z,10.6
2018-01-25T01:20:34.791Z,10.6
2018-01-25T01:21:36.194Z,10.6
2018-01-25T01:22:37.707Z,10.5
2018-01-25T01:23:39.116Z,10.6
2018-01-25T01:24:40.518Z,10.4
2018-01-25T01:25:42.030Z,10.4
2018-01-25T01:26:43.430Z,10.5
2018-01-25T01:27:44.914Z,10.4
2018-01-25T01:28:46.310Z,10.4
2018-01-25T01:29:47.792Z,10.5
2018-01-25T01:30:49.199Z,10.3
2018-01-25T01:31:50.670Z,10.4
2018-01-25T01:32:52.068Z,10.4
2018-01-25T01:33:53.659Z,10.3
2018-01-25T01:34:55.062Z,10.4
2018-01-25T01:35:56.467Z,10.4
2018-01-25T01:36:58.079Z,10.4
2018-01-25T01:37:59.482Z,10.3
2018-01-25T01:39:00.889Z,10.3
2018-01-25T01:40:02.404Z,10.2
2018-01-25T01:41:03.804Z,10.2
2018-01-25T01:42:05.208Z,10.3
2018-01-25T01:43:06.719Z,10.2
2018-01-25T01:44:08.124Z,10.2
2018-01-25T01:45:09.526Z,10.1
2018-01-25T01:46:11.144Z,10.1
2018-01-25T01:47:12.548Z,10.2
2018-01-25T01:48:13.949Z,10.2
2018-01-25T01:49:15.671Z,10.1
2018-01-25T01:50:17.076Z,10.2
2018-01-25T01:51:18.755Z,10.0
2018-01-25T01:52:20.162Z,10.0
2018-01-25T01:53:21.849Z,10.1
2018-01-25T01:54:23.243Z,10.0
2018-01-25T01:55:24.928Z,10.1
2018-01-25T01:56:26.339Z,10.0
2018-01-25T01:57:28.013Z,10.0
2018-01-25T01:58:29.417Z,10.1
2018-01-25T01:59:30.822Z,10.1
2018-01-25T02:00:32.539Z,10.0
2018-01-25T02:01:33.942Z,10.0
2018-01-25T02:02:35.334Z,9.9
2018-01-25T02:03:37.065Z,10.0
2018-01-25T02:04:38.470Z,9.9
2018-01-25T02:05:39.870Z,9.9
2018-01-25T02:06:41.586Z,9.9
2018-01-25T02:07:42.993Z,9.8
2018-01-25T02:08:44.389Z,9.8
2018-01-25T02:09:46.115Z,9.8
2018-01-25T02:10:47.517Z,9.8
2018-01-25T02:11:48.921Z,9.8
2018-01-25T02:12:50.642Z,9.7
2018-01-25T02:13:52.038Z,9.7
2018-01-25T02:14:53.443Z,9.6
2018-01-25T02:15:54.959Z,9.7
2018-01-25T02:16:56.361Z,9.7
2018-01-25T02:17:58.043Z,9.7
2018-01-25T02:18:59.456Z,9.6
2018-01-25T02:20:01.131Z,9.7
2018-01-25T02:21:02.533Z,9.6
2018-01-25T02:22:04.227Z,9.7
2018-01-25T02:23:05.612Z,9.6
2018-01-25T02:24:07.305Z,9.6
2018-01-25T02:25:08.707Z,9.5
2018-01-25T02:26:10.389Z,9.6
2018-01-25T02:27:11.788Z,9.5
2018-01-25T02:28:13.477Z,9.4
2018-01-25T02:29:14.881Z,9.5
2018-01-25T02:30:16.560Z,9.6
2018-01-25T02:31:17.964Z,9.5
2018-01-25T02:32:19.648Z,9.6
2018-01-25T02:33:21.049Z,9.5
2018-01-25T02:34:22.733Z,9.5
2018-01-25T02:35:24.135Z,9.5
2018-01-25T02:36:25.537Z,9.5
2018-01-25T02:37:27.053Z,9.5
2018-01-25T02:38:28.464Z,9.5
2018-01-25T02:39:29.863Z,9.5
2018-01-25T02:40:31.580Z,9.4
2018-01-25T02:41:32.980Z,9.4
2018-01-25T02:42:34.663Z,9.5
2018-01-25T02:43:36.075Z,9.4
2018-01-25T02:44:37.752Z,9.5
2018-01-25T02:45:39.153Z,9.5
2018-01-25T02:46:40.555Z,9.5
2018-01-25T02:47:42.073Z,9.3
2018-01-25T02:48:43.479Z,9.4
2018-01-25T02:49:44.881Z,9.5
2018-01-25T02:50:46.599Z,9.3
2018-01-25T02:51:47.997Z,9.4
2018-01-25T02:52:49.684Z,9.3
2018-01-25T02:53:51.087Z,9.4
2018-01-25T02:54:52.771Z,9.4
2018-01-25T02:55:54.173Z,9.3
2018-01-25T02:56:55.856Z,9.4
2018-01-25T02:57:57.258Z,9.3
2018-01-25T02:58:58.941Z,9.4
2018-01-25T03:00:00.342Z,9.3
2018-01-25T03:01:02.029Z,9.3
2018-01-25T03:02:03.433Z,9.3
2018-01-25T03:03:05.114Z,9.2
2018-01-25T03:04:06.517Z,9.2
2018-01-25T03:05:07.920Z,9.3
2018-01-25T03:06:09.434Z,9.2
2018-01-25T03:07:10.832Z,9.2
2018-01-25T03:08:12.235Z,9.2
2018-01-25T03:09:13.754Z,9.2
2018-01-25T03:10:15.155Z,9.2
2018-01-25T03:11:16.560Z,9.2
2018-01-25T03:12:18.280Z,9.2
2018-01-25T03:13:19.681Z,9.2
2018-01-25T03:14:21.080Z,9.2
2018-01-25T03:15:22.601Z,9.2
2018-01-25T03:16:24.014Z,9.2
2018-01-25T03:17:25.686Z,9.2
2018-01-25T03:18:27.095Z,9.2
2018-01-25T03:19:28.773Z,9.2
2018-01-25T03:20:30.176Z,9.2
2018-01-25T03:21:31.857Z,9.2
2018-01-25T03:22:33.257Z,9.1
2018-01-25T03:23:34.950Z,9.2
2018-01-25T03:24:36.342Z,9.0
2018-01-25T03:25:38.022Z,9.1
2018-01-25T03:26:39.429Z,9.1
2018-01-25T03:27:41.118Z,9.1
2018-01-25T03:28:42.523Z,9.1
2018-01-25T03:29:44.205Z,9.0
2018-01-25T03:30:45.597Z,9.1
2018-01-25T03:31:46.999Z,9.0
2018-01-25T03:32:48.524Z,9.1
2018-01-25T03:33:49.919Z,9.0
2018-01-25T03:34:51.320Z,8.9
2018-01-25T03:35:52.748Z,9.1
2018-01-25T03:36:54.149Z,8.9
2018-01-25T03:37:55.720Z,9.0
2018-01-25T03:38:57.121Z,8.9
2018-01-25T03:39:58.806Z,9.0
2018-01-25T03:41:00.210Z,8.9
2018-01-25T03:42:01.898Z,8.9
2018-01-25T03:43:03.293Z,8.9
2018-01-25T03:44:04.988Z,9.0
2018-01-25T03:45:06.391Z,8.9
2018-01-25T03:46:07.973Z,9.0
2018-01-25T03:47:09.374Z,8.9
2018-01-25T03:48:10.955Z,9.0
2018-01-25T03:49:12.344Z,8.9
2018-01-25T03:50:14.031Z,8.9
2018-01-25T03:51:15.431Z,9.0
2018-01-25T03:52:17.116Z,9.0
2018-01-25T03:53:18.520Z,9.0
2018-01-25T03:54:20.204Z,8.9
2018-01-25T03:55:21.604Z,8.9
2018-01-25T03:56:23.002Z,9.0
2018-01-25T03:57:24.524Z,8.9
2018-01-25T03:58:25.924Z,9.0
2018-01-25T03:59:27.324Z,8.9
2018-01-25T04:00:30.939Z,8.8
2018-01-25T04:01:32.343Z,8.9
2018-01-25T04:02:33.981Z,8.9
2018-01-25T04:03:35.379Z,8.9
2018-01-25T04:04:37.063Z,8.9
2018-01-25T04:05:38.464Z,8.9
2018-01-25T04:06:40.146Z,8.8
2018-01-25T04:07:41.550Z,8.9
2018-01-25T04:08:43.231Z,8.9
2018-01-25T04:09:44.638Z,8.9
2018-01-25T04:10:46.324Z,8.9
2018-01-25T04:11:47.743Z,8.8
2018-01-25T04:12:49.146Z,8.8
2018-01-25T04:13:50.849Z,8.8
2018-01-25T04:14:52.246Z,8.8
2018-01-25T04:15:53.647Z,8.8
2018-01-25T04:16:55.167Z,8.7
2018-01-25T04:17:56.569Z,8.8
2018-01-25T04:18:57.968Z,8.8
2018-01-25T04:19:59.490Z,8.8
2018-01-25T04:21:00.893Z,8.7
2018-01-25T04:22:02.294Z,8.7
2018-01-25T04:23:03.857Z,8.8
2018-01-25T04:24:05.262Z,8.7
2018-01-25T04:25:06.660Z,8.8
2018-01-25T04:26:08.380Z,8.8
2018-01-25T04:27:09.778Z,8.8
2018-01-25T04:28:11.425Z,8.8
2018-01-25T04:29:12.827Z,8.7
2018-01-25T04:30:14.511Z,8.7
2018-01-25T04:31:15.910Z,8.7
2018-01-25T04:32:17.308Z,8.7
2018-01-25T04:33:18.827Z,8.7
2018-01-25T04:34:20.227Z,8.8
2018-01-25T04:35:21.625Z,8.6
2018-01-25T04:36:23.147Z,8.7
2018-01-25T04:37:24.552Z,8.7
2018-01-25T04:38:25.956Z,8.7
2018-01-25T04:39:27.470Z,8.7
2018-01-25T04:40:28.871Z,8.7
2018-01-25T04:41:30.270Z,8.7
2018-01-25T04:42:31.792Z,8.7
2018-01-25T04:43:33.195Z,8.7
2018-01-25T04:44:34.877Z,8.7
2018-01-25T04:45:36.280Z,8.6
2018-01-25T04:46:37.679Z,8.6
2018-01-25T04:47:39.197Z,8.6
2018-01-25T04:48:40.600Z,8.5
2018-01-25T04:49:42.000Z,8.6
2018-01-25T04:50:43.518Z,8.6
2018-01-25T04:51:44.921Z,8.6
2018-01-25T04:52:46.321Z,8.5
2018-01-25T04:53:47.848Z,8.6
2018-01-25T04:54:49.253Z,8.5
2018-01-25T04:55:50.943Z,8.5
2018-01-25T04:56:52.343Z,8.5
2018-01-25T04:57:53.748Z,8.5
2018-01-25T04:58:55.245Z,8.6
2018-01-25T04:59:56.650Z,8.5
2018-01-25T05:00:58.048Z,8.4
2018-01-25T05:01:59.568Z,8.5
2018-01-25T05:03:01.001Z,8.5
2018-01-25T05:04:02.466Z,8.5
2018-01-25T05:05:04.136Z,8.5
2018-01-25T05:06:05.541Z,8.4
2018-01-25T05:07:06.945Z,8.5
2018-01-25T05:08:08.673Z,8.4
2018-01-25T05:09:10.148Z,8.5
2018-01-25T05:10:11.705Z,8.4
2018-01-25T05:11:13.106Z,8.4
2018-01-25T05:12:14.508Z,8.4
2018-01-25T05:13:16.028Z,8.4
2018-01-25T05:14:17.436Z,8.4
2018-01-25T05:15:18.837Z,8.5
2018-01-25T05:16:20.349Z,8.4
2018-01-25T05:17:21.788Z,8.3
2018-01-25T05:18:23.432Z,8.4
2018-01-25T05:19:24.837Z,8.5
2018-01-25T05:20:26.519Z,8.4
2018-01-25T05:21:27.922Z,8.3
2018-01-25T05:22:29.605Z,8.3
2018-01-25T05:23:31.006Z,8.3
2018-01-25T05:24:32.614Z,8.3
2018-01-25T05:25:34.014Z,8.4
2018-01-25T05:26:35.496Z,8.3
2018-01-25T05:27:36.898Z,8.3
2018-01-25T05:28:38.301Z,8.4
2018-01-25T05:29:39.816Z,8.4
2018-01-25T05:30:41.218Z,8.4
2018-01-25T05:31:42.620Z,8.3
2018-01-25T05:32:44.140Z,8.3
2018-01-25T05:33:45.539Z,8.4
2018-01-25T05:34:47.023Z,8.5
2018-01-25T05:35:48.422Z,8.4
2018-01-25T05:36:49.901Z,8.3
2018-01-25T05:37:51.298Z,8.3
2018-01-25T05:38:52.699Z,8.4
2018-01-25T05:39:54.222Z,8.4
2018-01-25T05:40:55.625Z,8.3
2018-01-25T05:41:57.025Z,8.3
2018-01-25T05:42:58.545Z,8.4
2018-01-25T05:43:59.945Z,8.3
2018-01-25T05:45:01.340Z,8.4
2018-01-25T05:46:02.866Z,8.3
2018-01-25T05:47:04.266Z,8.4
2018-01-25T05:48:05.665Z,8.3
2018-01-25T05:49:07.187Z,8.2
2018-01-25T05:50:08.593Z,8.3
2018-01-25T05:51:10.073Z,8.3
2018-01-25T05:52:11.480Z,8.3
2018-01-25T05:53:12.951Z,8.3
2018-01-25T05:54:14.350Z,8.3
2018-01-25T05:55:15.830Z,8.3
2018-01-25T05:56:17.235Z,8.3
2018-01-25T05:57:18.635Z,8.3
2018-01-25T05:58:20.153Z,8.3
2018-01-25T05:59:21.554Z,8.3
2018-01-25T06:00:22.954Z,8.2
2018-01-25T06:01:24.475Z,8.3
2018-01-25T06:02:25.876Z,8.2
2018-01-25T06:03:27.280Z,8.2
2018-01-25T06:04:28.798Z,8.2
2018-01-25T06:05:30.196Z,8.1
2018-01-25T06:06:31.597Z,8.2
2018-01-25T06:07:33.121Z,8.3
2018-01-25T06:08:34.518Z,8.1
2018-01-25T06:09:35.998Z,8.2
2018-01-25T06:10:37.400Z,8.2
2018-01-25T06:11:38.879Z,8.2
2018-01-25T06:12:40.280Z,8.1
2018-01-25T06:13:41.761Z,8.1
2018-01-25T06:14:43.162Z,8.1
2018-01-25T06:15:44.641Z,8.1
2018-01-25T06:16:46.044Z,8.1
2018-01-25T06:17:47.526Z,8.1
2018-01-25T06:18:48.925Z,8.1
2018-01-25T06:19:50.403Z,8.0
2018-01-25T06:20:51.805Z,8.0
2018-01-25T06:21:53.284Z,7.9
2018-01-25T06:22:54.685Z,7.9
2018-01-25T06:23:56.087Z,7.9
2018-01-25T06:24:57.607Z,7.9
2018-01-25T06:25:59.008Z,7.8
2018-01-25T06:27:00.410Z,7.9
2018-01-25T06:28:01.930Z,7.9
2018-01-25T06:29:03.329Z,7.9
2018-01-25T06:30:04.810Z,7.8
2018-01-25T06:31:06.210Z,7.9
2018-01-25T06:32:07.690Z,7.9
2018-01-25T06:33:09.094Z,7.8
2018-01-25T06:34:10.577Z,7.8
2018-01-25T06:35:11.973Z,7.8
2018-01-25T06:36:13.452Z,7.8
2018-01-25T06:37:14.855Z,7.8
2018-01-25T06:38:16.333Z,7.7
2018-01-25T06:39:17.734Z,7.7
2018-01-25T06:40:19.216Z,7.7
2018-01-25T06:41:20.614Z,7.7
2018-01-25T06:42:22.095Z,7.7
2018-01-25T06:43:23.496Z,7.7
2018-01-25T06:44:24.978Z,7.7
2018-01-25T06:45:26.378Z,7.7
2018-01-25T06:46:27.858Z,7.8
2018-01-25T06:47:29.262Z,7.7
2018-01-25T06:48:30.737Z,7.7
2018-01-25T06:49:32.138Z,7.8
2018-01-25T06:50:33.620Z,7.7
2018-01-25T06:51:35.021Z,7.7
2018-01-25T06:52:36.502Z,7.7
2018-01-25T06:53:37.903Z,7.7
2018-01-25T06:54:39.304Z,7.8
2018-01-25T06:55:40.823Z,7.7
2018-01-25T06:56:42.221Z,7.6
2018-01-25T06:57:43.621Z,7.7
2018-01-25T06:58:45.143Z,7.7
2018-01-25T06:59:46.542Z,7.8
2018-01-25T07:00:47.949Z,7.7
2018-01-25T07:01:49.472Z,7.7
2018-01-25T07:02:50.870Z,7.6
2018-01-25T07:03:52.270Z,7.7
2018-01-25T07:04:53.790Z,7.6
2018-01-25T07:05:55.192Z,7.7
2018-01-25T07:06:56.603Z,7.7
2018-01-25T07:07:58.112Z,7.7
2018-01-25T07:08:59.524Z,7.7
2018-01-25T07:10:00.936Z,7.7
2018-01-25T07:11:02.333Z,7.7
2018-01-25T07:12:03.742Z,7.7
2018-01-25T07:13:05.149Z,7.7
2018-01-25T07:14:06.551Z,7.6
2018-01-25T07:15:07.990Z,7.7
2018-01-25T07:16:09.392Z,7.7
2018-01-25T07:17:10.871Z,7.7
2018-01-25T07:18:12.273Z,7.6
2018-01-25T07:19:13.752Z,7.5
2018-01-25T07:20:15.154Z,7.5
2018-01-25T07:21:16.633Z,7.5
2018-01-25T07:22:18.038Z,7.6
2018-01-25T07:23:19.444Z,7.5
2018-01-25T07:24:20.954Z,7.6
2018-01-25T07:25:22.353Z,7.6
2018-01-25T07:26:23.758Z,7.6
2018-01-25T07:27:25.279Z,7.6
2018-01-25T07:28:26.683Z,7.6
2018-01-25T07:29:28.089Z,7.7
2018-01-25T07:30:29.597Z,7.7
2018-01-25T07:31:31.005Z,7.7
2018-01-25T07:32:32.487Z,7.6
2018-01-25T07:33:33.891Z,7.7
2018-01-25T07:34:35.293Z,7.7
2018-01-25T07:35:36.695Z,7.7
2018-01-25T07:36:38.248Z,7.7
2018-01-25T07:37:39.647Z,7.8
2018-01-25T07:38:41.051Z,7.8
2018-01-25T07:39:42.568Z,7.9
2018-01-25T07:40:43.972Z,7.9
2018-01-25T07:41:45.373Z,7.9
2018-01-25T07:42:46.892Z,7.9
2018-01-25T07:43:48.292Z,8.1
2018-01-25T07:44:49.701Z,8.1
2018-01-25T07:45:51.211Z,8.1
2018-01-25T07:46:52.610Z,8.1
2018-01-25T07:47:54.015Z,8.2
2018-01-25T07:48:55.533Z,8.2
2018-01-25T07:49:56.940Z,8.1
2018-01-25T07:50:58.418Z,8.3
2018-01-25T07:51:59.820Z,8.3
2018-01-25T07:53:01.293Z,8.3
2018-01-25T07:54:02.697Z,8.3
2018-01-25T07:55:04.100Z,8.3
2018-01-25T07:56:05.616Z,8.3
2018-01-25T07:57:07.021Z,8.3
2018-01-25T07:58:08.425Z,8.3
2018-01-25T07:59:09.937Z,8.4
2018-01-25T08:00:11.337Z,8.4
2018-01-25T08:01:12.744Z,8.4
2018-01-25T08:02:14.260Z,8.5
2018-01-25T08:03:15.658Z,8.5
2018-01-25T08:04:17.068Z,8.4
2018-01-25T08:05:18.580Z,8.6
2018-01-25T08:06:19.993Z,8.6
2018-01-25T08:07:21.391Z,8.6
2018-01-25T08:08:22.902Z,8.6
2018-01-25T08:09:24.307Z,8.7
2018-01-25T08:10:25.710Z,8.6
2018-01-25T08:11:27.223Z,8.7
2018-01-25T08:12:28.629Z,8.8
2018-01-25T08:13:30.111Z,8.8
2018-01-25T08:14:31.506Z,8.7
2018-01-25T08:15:32.910Z,8.8
2018-01-25T08:16:34.427Z,8.8
2018-01-25T08:17:35.835Z,8.9
2018-01-25T08:18:37.237Z,8.9
2018-01-25T08:19:38.748Z,8.9
2018-01-25T08:20:40.154Z,9.0
2018-01-25T08:21:41.628Z,8.9
2018-01-25T08:22:43.033Z,9.1
2018-01-25T08:23:44.510Z,8.9
2018-01-25T08:24:45.915Z,9.1
2018-01-25T08:25:47.331Z,9.0
2018-01-25T08:26:48.832Z,9.0
2018-01-25T08:27:50.238Z,9.0
2018-01-25T08:28:51.697Z,9.0
2018-01-25T08:29:53.156Z,9.1
2018-01-25T08:30:54.558Z,9.1
2018-01-25T08:31:56.036Z,9.1
2018-01-25T08:32:57.445Z,9.1
2018-01-25T08:33:58.917Z,9.1
2018-01-25T08:35:00.326Z,9.1
2018-01-25T08:36:01.726Z,9.1
2018-01-25T08:37:03.236Z,9.2
2018-01-25T08:38:04.640Z,9.2
2018-01-25T08:39:06.045Z,9.2
2018-01-25T08:40:07.557Z,9.2
2018-01-25T08:41:08.963Z,9.2
2018-01-25T08:42:10.377Z,9.2
2018-01-25T08:43:11.879Z,9.2
2018-01-25T08:44:13.282Z,9.2
2018-01-25T08:45:14.684Z,9.3
2018-01-25T08:46:16.202Z,9.3
2018-01-25T08:47:17.610Z,9.2
2018-01-25T08:48:19.085Z,9.3
2018-01-25T08:49:20.498Z,9.3
2018-01-25T08:50:21.904Z,9.3
2018-01-25T08:51:23.404Z,9.3
2018-01-25T08:52:24.830Z,9.4
2018-01-25T08:53:26.597Z,9.4
2018-01-25T08:54:28.137Z,9.3
2018-01-25T08:55:29.547Z,9.4
2018-01-25T08:56:30.954Z,9.5
2018-01-25T08:57:32.459Z,9.5
2018-01-25T08:58:33.862Z,9.6
2018-01-25T08:59:35.268Z,9.4
2018-01-25T09:00:36.779Z,9.4
2018-01-25T09:01:38.186Z,9.5
2018-01-25T09:02:39.605Z,9.3
2018-01-25T09:03:41.101Z,9.4
2018-01-25T09:04:42.507Z,9.5
2018-01-25T09:05:43.912Z,9.4
2018-01-25T09:06:45.421Z,9.5
2018-01-25T09:07:46.827Z,9.5
2018-01-25T09:08:48.239Z,9.5
2018-01-25T09:09:49.745Z,9.6
2018-01-25T09:10:51.151Z,9.5
2018-01-25T09:11:52.624Z,9.5
2018-01-25T09:12:54.032Z,9.5
2018-01-25T09:13:55.504Z,9.6
2018-01-25T09:14:56.931Z,9.6
2018-01-25T09:15:58.387Z,9.6
2018-01-25T09:16:59.794Z,9.6
2018-01-25T09:18:01.280Z,9.6
2018-01-25T09:19:02.696Z,9.6
2018-01-25T09:20:04.150Z,9.6
2018-01-25T09:21:05.554Z,9.7
2018-01-25T09:22:07.030Z,9.7
2018-01-25T09:23:08.436Z,9.7
2018-01-25T09:24:09.915Z,9.8
2018-01-25T09:25:11.345Z,9.9
2018-01-25T09:26:12.754Z,9.8
2018-01-25T09:27:14.233Z,9.9
2018-01-25T09:28:15.638Z,9.9
2018-01-25T09:29:17.042Z,9.9
2018-01-25T09:30:18.555Z,10.0
2018-01-25T09:31:19.961Z,9.9
2018-01-25T09:32:21.485Z,9.9
2018-01-25T09:33:22.840Z,10.0
2018-01-25T09:34:24.318Z,10.0
2018-01-25T09:35:25.725Z,9.9
2018-01-25T09:36:27.197Z,9.8
2018-01-25T09:37:28.607Z,9.9
2018-01-25T09:38:30.085Z,9.8
2018-01-25T09:39:31.487Z,9.9
2018-01-25T09:40:32.892Z,9.8
2018-01-25T09:41:34.402Z,9.8
2018-01-25T09:42:35.812Z,9.9
2018-01-25T09:43:37.220Z,10.0
2018-01-25T09:44:38.687Z,9.9
2018-01-25T09:45:40.094Z,10.0
2018-01-25T09:46:41.503Z,10.0
2018-01-25T09:47:43.045Z,10.0
2018-01-25T09:48:44.452Z,10.0
2018-01-25T09:49:45.860Z,10.0
2018-01-25T09:50:47.745Z,10.0
2018-01-25T09:51:49.153Z,10.1
2018-01-25T09:52:50.658Z,10.1
2018-01-25T09:53:52.079Z,10.2
2018-01-25T09:54:53.539Z,10.2
2018-01-25T09:55:54.942Z,10.2
2018-01-25T09:56:56.354Z,10.2
2018-01-25T09:57:57.860Z,10.2
2018-01-25T09:58:59.269Z,10.2
2018-01-25T10:00:00.677Z,10.2
2018-01-25T10:01:02.183Z,10.3
2018-01-25T10:02:03.591Z,10.3
2018-01-25T10:03:04.999Z,10.3
2018-01-25T10:04:06.411Z,10.4
2018-01-25T10:05:07.818Z,10.4
2018-01-25T10:06:09.226Z,10.4
2018-01-25T10:07:10.826Z,10.4
2018-01-25T10:08:12.236Z,10.5
2018-01-25T10:09:13.643Z,10.4
2018-01-25T10:10:15.543Z,10.6
2018-01-25T10:11:16.948Z,10.5
2018-01-25T10:12:18.438Z,10.6
2018-01-25T10:13:19.847Z,10.6
2018-01-25T10:14:21.320Z,10.6
2018-01-25T10:15:22.726Z,10.6
2018-01-25T10:16:24.137Z,10.7
2018-01-25T10:17:25.639Z,10.6
2018-01-25T10:18:27.047Z,10.7
2018-01-25T10:19:29.174Z,10.7
2018-01-25T10:20:30.815Z,10.7
2018-01-25T10:21:32.225Z,10.8
2018-01-25T10:22:33.630Z,10.8
2018-01-25T10:23:35.133Z,10.8
2018-01-25T10:24:36.544Z,10.8
2018-01-25T10:25:37.948Z,10.9
2018-01-25T10:26:39.426Z,10.8
2018-01-25T10:27:40.835Z,10.9
2018-01-25T10:28:42.307Z,11.0
2018-01-25T10:29:43.720Z,11.1
2018-01-25T10:30:45.126Z,11.0
2018-01-25T10:31:46.627Z,11.1
2018-01-25T10:32:48.034Z,11.2
2018-01-25T10:33:49.445Z,11.3
2018-01-25T10:34:50.950Z,11.3
2018-01-25T10:35:52.377Z,11.4
2018-01-25T10:36:53.784Z,11.4
2018-01-25T10:37:55.270Z,11.5
2018-01-25T10:38:56.679Z,11.4
2018-01-25T10:39:58.087Z,11.5
2018-01-25T10:40:59.593Z,11.5
2018-01-25T10:42:01.006Z,11.5
2018-01-25T10:43:02.415Z,11.5
2018-01-25T10:44:03.914Z,11.5
2018-01-25T10:45:05.321Z,11.4
2018-01-25T10:46:06.765Z,11.5
2018-01-25T10:47:08.238Z,11.5
2018-01-25T10:48:09.654Z,11.6
2018-01-25T10:49:11.062Z,11.6
2018-01-25T10:50:12.557Z,11.7
2018-01-25T10:51:13.968Z,11.8
2018-01-25T10:52:15.376Z,11.8
2018-01-25T10:53:16.882Z,11.9
2018-01-25T10:54:18.288Z,12.0
2018-01-25T10:55:19.762Z,12.0
2018-01-25T10:56:21.174Z,12.0
2018-01-25T10:57:22.643Z,12.1
2018-01-25T10:58:24.053Z,12.1
2018-01-25T10:59:25.522Z,12.1
2018-01-25T11:00:26.932Z,12.2
2018-01-25T11:01:28.405Z,12.3
2018-01-25T11:02:29.815Z,12.3
2018-01-25T11:03:31.227Z,12.3
2018-01-25T11:04:32.724Z,12.4
2018-01-25T11:05:34.136Z,12.5
2018-01-25T11:06:35.543Z,12.5
2018-01-25T11:07:37.045Z,12.5
2018-01-25T11:08:38.458Z,12.6
2018-01-25T11:09:39.931Z,12.6
2018-01-25T11:10:41.344Z,12.6
2018-01-25T11:11:42.809Z,12.7
2018-01-25T11:12:44.222Z,12.7
2018-01-25T11:13:45.692Z,12.7
2018-01-25T11:14:47.100Z,12.6
2018-01-25T11:15:48.573Z,12.7
2018-01-25T11:16:49.983Z,12.8
2018-01-25T11:17:51.403Z,12.8
2018-01-25T11:18:52.891Z,12.9
2018-01-25T11:19:54.306Z,12.9
2018-01-25T11:20:55.714Z,12.9
2018-01-25T11:21:57.215Z,13.0
2018-01-25T11:22:58.627Z,13.0
2018-01-25T11:24:00.041Z,13.1
2018-01-25T11:25:01.537Z,13.0
2018-01-25T11:26:02.948Z,13.0
2018-01-25T11:27:04.363Z,13.1
2018-01-25T11:28:05.857Z,13.1
2018-01-25T11:29:07.266Z,13.1
2018-01-25T11:30:08.738Z,13.2
2018-01-25T11:31:10.147Z,13.2
2018-01-25T11:32:11.619Z,13.2
2018-01-25T11:33:13.030Z,13.3
2018-01-25T11:34:14.499Z,13.2
2018-01-25T11:35:15.907Z,13.3
2018-01-25T11:36:17.765Z,13.4
2018-01-25T11:37:19.173Z,13.3
2018-01-25T11:38:20.577Z,13.4
2018-01-25T11:39:22.113Z,13.3
2018-01-25T11:40:23.523Z,13.3
2018-01-25T11:41:24.936Z,13.4
2018-01-25T11:42:26.441Z,13.4
2018-01-25T11:43:27.843Z,13.5
2018-01-25T11:44:29.252Z,13.3
2018-01-25T11:45:30.809Z,13.3
2018-01-25T11:46:32.167Z,13.4
2018-01-25T11:47:33.577Z,13.4
2018-01-25T11:48:35.078Z,13.3
2018-01-25T11:49:36.487Z,13.3
2018-01-25T11:50:37.960Z,13.3
2018-01-25T11:51:39.369Z,13.4
2018-01-25T11:52:40.782Z,13.4
2018-01-25T11:53:42.281Z,13.3
2018-01-25T11:54:43.694Z,13.2
2018-01-25T11:55:45.103Z,13.1
2018-01-25T11:56:46.603Z,13.2
2018-01-25T11:57:48.013Z,13.2
2018-01-25T11:58:49.485Z,13.1
2018-01-25T11:59:50.893Z,13.1
2018-01-25T12:00:52.365Z,13.1
2018-01-25T12:01:53.801Z,13.0
2018-01-25T12:02:55.247Z,13.1
2018-01-25T12:03:56.655Z,13.0
2018-01-25T12:04:58.127Z,13.0
2018-01-25T12:05:59.534Z,13.0
2018-01-25T12:07:01.009Z,12.8
2018-01-25T12:08:02.418Z,12.8
2018-01-25T12:09:03.827Z,12.8
2018-01-25T12:10:05.330Z,12.9
2018-01-25T12:11:06.740Z,12.9
2018-01-25T12:12:08.147Z,12.8
2018-01-25T12:13:09.651Z,12.8
2018-01-25T12:14:11.060Z,12.8
2018-01-25T12:15:12.474Z,12.8
2018-01-25T12:16:13.894Z,12.8
2018-01-25T12:17:15.328Z,12.8
2018-01-25T12:18:16.712Z,12.8
2018-01-25T12:19:18.295Z,12.9
2018-01-25T12:20:19.706Z,12.9
2018-01-25T12:21:21.112Z,12.9
2018-01-25T12:22:22.618Z,12.9
2018-01-25T12:23:24.026Z,12.9
2018-01-25T12:24:25.497Z,13.0
2018-01-25T12:25:26.906Z,13.1
2018-01-25T12:26:28.382Z,13.2
2018-01-25T12:27:29.788Z,13.2
2018-01-25T12:28:31.196Z,13.3
2018-01-25T12:29:32.699Z,13.2
2018-01-25T12:30:34.131Z,13.3
2018-01-25T12:31:35.543Z,13.4
2018-01-25T12:32:37.024Z,13.4
2018-01-25T12:33:38.436Z,13.4
2018-01-25T12:34:39.846Z,13.3
2018-01-25T12:35:41.343Z,13.4
2018-01-25T12:36:42.755Z,13.3
2018-01-25T12:37:44.163Z,13.2
2018-01-25T12:38:45.668Z,13.2
2018-01-25T12:39:47.075Z,13.2
2018-01-25T12:40:48.482Z,13.2
2018-01-25T12:41:49.987Z,13.2
2018-01-25T12:42:51.396Z,13.3
2018-01-25T12:43:52.805Z,13.3
2018-01-25T12:44:54.309Z,13.4
2018-01-25T12:45:55.719Z,13.3
2018-01-25T12:46:57.221Z,13.3
2018-01-25T12:47:58.627Z,13.4
2018-01-25T12:49:00.071Z,13.4
2018-01-25T12:50:01.482Z,13.4
2018-01-25T12:51:02.951Z,13.3
2018-01-25T12:52:04.748Z,13.3
2018-01-25T12:53:06.162Z,13.3
2018-01-25T12:54:07.681Z,13.3
2018-01-25T12:55:09.086Z,13.2
2018-01-25T12:56:10.503Z,13.1
2018-01-25T12:57:11.911Z,13.1
2018-01-25T12:58:13.321Z,13.1
2018-01-25T12:59:14.884Z,13.1
2018-01-25T13:00:16.296Z,13.0
2018-01-25T13:01:17.738Z,13.0
2018-01-25T13:02:19.205Z,13.0
2018-01-25T13:03:20.613Z,13.0
2018-01-25T13:04:22.090Z,13.0
2018-01-25T13:05:23.501Z,13.1
2018-01-25T13:06:24.969Z,13.1
2018-01-25T13:07:26.381Z,13.1
2018-01-25T13:08:27.784Z,13.1
2018-01-25T13:09:29.290Z,13.1
2018-01-25T13:10:30.699Z,13.1
2018-01-25T13:11:32.105Z,13.1
2018-01-25T13:12:33.611Z,13.1
2018-01-25T13:13:35.020Z,13.0
2018-01-25T13:14:36.432Z,13.1
2018-01-25T13:15:37.934Z,13.0
2018-01-25T13:16:39.342Z,13.1
2018-01-25T13:17:40.752Z,13.0
2018-01-25T13:18:42.257Z,13.0
2018-01-25T13:19:43.665Z,13.0
2018-01-25T13:20:45.138Z,12.9
2018-01-25T13:21:46.550Z,12.9
2018-01-25T13:22:48.017Z,12.9
2018-01-25T13:23:49.425Z,12.9
2018-01-25T13:24:50.833Z,12.8
2018-01-25T13:25:52.338Z,12.7
2018-01-25T13:26:53.747Z,12.7
2018-01-25T13:27:55.160Z,12.8
2018-01-25T13:28:56.659Z,12.8
2018-01-25T13:29:58.080Z,12.7
2018-01-25T13:30:59.540Z,12.8
2018-01-25T13:32:00.982Z,12.7
2018-01-25T13:33:02.390Z,12.7
2018-01-25T13:34:03.800Z,12.6
2018-01-25T13:35:05.679Z,12.7
2018-01-25T13:36:07.089Z,12.6
2018-01-25T13:37:08.594Z,12.5
2018-01-25T13:38:10.035Z,12.5
2018-01-25T13:39:11.476Z,12.5
2018-01-25T13:40:12.890Z,12.4
2018-01-25T13:41:14.356Z,12.4
2018-01-25T13:42:15.767Z,12.4
2018-01-25T13:43:17.239Z,12.3
2018-01-25T13:44:18.651Z,12.2
2018-01-25T13:45:20.118Z,12.4
2018-01-25T13:46:21.525Z,12.3
2018-01-25T13:47:23.003Z,12.2
2018-01-25T13:48:24.410Z,12.2
2018-01-25T13:49:25.881Z,12.2
2018-01-25T13:50:27.291Z,12.2
2018-01-25T13:51:28.761Z,12.3
2018-01-25T13:52:30.170Z,12.2
2018-01-25T13:53:31.584Z,12.2